createdAt,value
2022-09-28T11:35:39.886Z,22.57
2022-09-28T11:35:50.860Z,22.57
2022-09-28T11:36:00.908Z,22.58
2022-09-28T11:36:10.948Z,22.58
2022-09-28T11:36:21.032Z,22.59
2022-09-28T11:36:31.109Z,22.59
2022-09-28T11:36:41.149Z,22.60
2022-09-28T11:36:51.216Z,22.61
2022-09-28T11:37:01.982Z,22.63
2022-09-28T11:37:11.337Z,22.65
2022-09-28T11:37:21.397Z,22.66
2022-09-28T11:37:31.445Z,22.68
2022-09-28T11:37:41.492Z,22.70
2022-09-28T11:38:16.868Z,22.89
2022-09-28T11:38:27.833Z,22.82
2022-09-28T11:38:37.900Z,22.82
2022-09-28T11:38:47.931Z,22.82
2022-09-28T11:38:57.994Z,22.82
2022-09-28T11:39:08.057Z,22.82
2022-09-28T11:39:18.290Z,22.82
2022-09-28T11:39:28.165Z,22.84
2022-09-28T11:39:38.232Z,22.85
2022-09-28T11:39:48.300Z,22.87
2022-09-28T11:39:58.358Z,22.89
2022-09-28T11:40:08.425Z,22.90
2022-09-28T11:40:36.815Z,22.99
2022-09-28T11:40:47.929Z,22.92
2022-09-28T11:40:57.934Z,22.91
2022-09-28T11:41:07.965Z,22.90
2022-09-28T11:41:18.033Z,22.89
2022-09-28T11:41:28.110Z,22.89
2022-09-28T11:41:38.173Z,22.89
2022-09-28T11:41:48.253Z,22.88
2022-09-28T11:41:58.389Z,22.88
2022-09-28T11:42:10.209Z,22.89
2022-09-28T11:42:18.478Z,22.89
2022-09-28T11:42:28.597Z,22.90
2022-09-28T11:42:38.662Z,22.91
2022-09-28T11:42:48.739Z,22.94
2022-09-28T11:42:58.853Z,22.96
2022-09-28T11:43:09.556Z,22.97
2022-09-28T11:43:42.214Z,23.15
2022-09-28T11:43:53.213Z,23.08
2022-09-28T11:44:03.906Z,23.10
2022-09-28T11:44:13.456Z,23.14
2022-09-28T11:44:23.421Z,23.14
2022-09-28T11:44:33.698Z,23.13
2022-09-28T11:44:43.626Z,23.10
2022-09-28T11:44:53.655Z,23.07
2022-09-28T11:45:03.730Z,23.04
2022-09-28T11:45:13.797Z,23.01
2022-09-28T11:45:23.874Z,22.99
2022-09-28T11:45:33.939Z,22.98
2022-09-28T11:45:44.063Z,22.97
2022-09-28T11:45:54.119Z,22.94
2022-09-28T11:46:04.187Z,22.93
2022-09-28T11:46:14.232Z,22.92
2022-09-28T11:46:24.292Z,22.92
2022-09-28T11:46:34.389Z,22.98
2022-09-28T11:46:44.410Z,23.05
2022-09-28T11:46:54.433Z,23.12
2022-09-28T11:47:04.506Z,23.16
2022-09-28T11:47:14.569Z,23.18
2022-09-28T11:47:24.651Z,23.21
2022-09-28T11:47:34.718Z,23.24
2022-09-28T11:47:44.789Z,23.26
2022-09-28T11:47:54.854Z,23.26
2022-09-28T11:48:04.925Z,23.24
2022-09-28T11:48:14.990Z,23.22
2022-09-28T11:48:25.057Z,23.19
2022-09-28T11:48:35.114Z,23.17
2022-09-28T11:48:45.186Z,23.15
2022-09-28T11:48:55.262Z,23.15
2022-09-28T11:49:05.333Z,23.14
2022-09-28T11:49:15.402Z,23.13
2022-09-28T11:49:25.481Z,23.13
2022-09-28T11:49:35.542Z,23.15
2022-09-28T11:49:45.614Z,23.16
2022-09-28T11:49:55.690Z,23.17
2022-09-28T11:50:05.760Z,23.18
2022-09-28T11:50:18.961Z,23.19
2022-09-28T11:50:27.357Z,23.20
2022-09-28T11:50:35.939Z,23.20
2022-09-28T11:50:46.006Z,23.20
2022-09-28T11:51:15.370Z,23.27
2022-09-28T11:51:26.366Z,23.20
2022-09-28T11:51:36.446Z,23.21
2022-09-28T11:51:46.514Z,23.23
2022-09-28T11:51:56.594Z,23.26
2022-09-28T11:52:06.663Z,23.27
2022-09-28T11:52:16.731Z,23.28
2022-09-28T11:52:26.767Z,23.30
2022-09-28T11:52:36.848Z,23.32
2022-09-28T11:52:46.910Z,23.34
2022-09-28T11:52:56.991Z,23.36
2022-09-28T11:53:07.059Z,23.37
2022-09-28T11:53:17.123Z,23.38
2022-09-28T11:53:27.200Z,23.39
2022-09-28T11:53:37.252Z,23.39
2022-09-28T11:53:47.315Z,23.39
2022-09-28T11:53:57.382Z,23.38
2022-09-28T11:54:07.443Z,23.38
2022-09-28T11:54:17.571Z,23.37
2022-09-28T11:54:27.590Z,23.38
2022-09-28T11:54:37.661Z,23.39
2022-09-28T11:54:47.704Z,23.39
2022-09-28T11:54:57.779Z,23.40
2022-09-28T11:55:07.830Z,23.41
2022-09-28T11:55:17.904Z,23.42
2022-09-28T11:55:27.980Z,23.43
2022-09-28T11:55:38.055Z,23.46
2022-09-28T11:55:48.123Z,23.49
2022-09-28T11:55:58.195Z,23.50
2022-09-28T11:56:09.172Z,23.49
2022-09-28T11:56:18.349Z,23.48
2022-09-28T11:56:28.403Z,23.48
2022-09-28T11:56:38.466Z,23.47
2022-09-28T11:56:48.532Z,23.47
2022-09-28T11:56:58.608Z,23.47
2022-09-28T11:57:08.667Z,23.48
2022-09-28T11:57:18.733Z,23.48
2022-09-28T11:57:28.799Z,23.46
2022-09-28T11:57:38.872Z,23.45
2022-09-28T11:57:48.934Z,23.44
2022-09-28T11:57:58.998Z,23.44
2022-09-28T11:58:09.071Z,23.43
2022-09-28T11:58:19.135Z,23.43
2022-09-28T11:58:29.214Z,23.44
2022-09-28T11:58:39.275Z,23.46
2022-09-28T11:58:49.331Z,23.47
2022-09-28T11:58:59.395Z,23.49
2022-09-28T11:59:09.449Z,23.51
2022-09-28T11:59:19.511Z,23.52
2022-09-28T11:59:29.585Z,23.53
2022-09-28T11:59:39.661Z,23.53
2022-09-28T11:59:49.723Z,23.55
2022-09-28T11:59:59.784Z,23.57
2022-09-28T12:00:09.843Z,23.59
2022-09-28T12:00:19.904Z,23.59
2022-09-28T12:00:29.988Z,23.59
2022-09-28T12:00:40.043Z,23.62
2022-09-28T12:00:50.103Z,23.64
2022-09-28T12:01:00.171Z,23.64
2022-09-28T12:01:10.267Z,23.65
2022-09-28T12:01:20.299Z,23.66
2022-09-28T12:01:30.341Z,23.68
2022-09-28T12:01:40.400Z,23.69
2022-09-28T12:01:50.468Z,23.71
2022-09-28T12:02:00.682Z,23.71
2022-09-28T12:02:10.726Z,23.70
2022-09-28T12:02:21.806Z,23.68
2022-09-28T12:02:30.829Z,23.65
2022-09-28T12:02:40.910Z,23.62
2022-09-28T12:02:50.993Z,23.60
2022-09-28T12:03:01.039Z,23.59
2022-09-28T12:03:11.065Z,23.58
2022-09-28T12:03:21.190Z,23.58
2022-09-28T12:03:31.297Z,23.58
2022-09-28T12:03:41.251Z,23.57
2022-09-28T12:03:51.309Z,23.57
2022-09-28T12:04:01.283Z,23.57
2022-09-28T12:04:11.430Z,23.57
2022-09-28T12:04:21.440Z,23.57
2022-09-28T12:04:31.512Z,23.59
2022-09-28T12:04:41.559Z,23.61
2022-09-28T12:04:51.643Z,23.63
2022-09-28T12:05:01.684Z,23.65
2022-09-28T12:05:11.752Z,23.67
2022-09-28T12:05:21.829Z,23.68
2022-09-28T12:05:31.903Z,23.69
2022-09-28T12:05:41.971Z,23.68
2022-09-28T12:05:52.045Z,23.68
2022-09-28T12:06:02.123Z,23.69
2022-09-28T12:06:12.204Z,23.71
2022-09-28T12:06:22.237Z,23.73
2022-09-28T12:06:32.300Z,23.75
2022-09-28T12:06:42.355Z,23.76
2022-09-28T12:06:52.430Z,23.76
2022-09-28T12:07:02.504Z,23.76
2022-09-28T12:07:12.576Z,23.76
2022-09-28T12:07:22.648Z,23.76
2022-09-28T12:07:32.722Z,23.75
2022-09-28T12:07:42.789Z,23.75
